Time;durP1;ratioP1;P1;durP2;ratioP2;P2;SDS_P1;SDS_P2;PMS_P1;PMS_P2;Temp;Humidity;BMP_temperature;BMP_pressure;BME280_temperature;BME280_humidity;BME280_pressure;Samples;Min_cycle;Max_cycle;Signal;HPM_P1;HPM_P2
2022/05/09 00:02:23;;;;;;;11.82;3.60;;;15.30;95.70;;;;;;6304416;22;20068;-65
2022/05/09 00:04:51;;;;;;;9.43;2.97;;;15.30;95.70;;;;;;6335145;22;20019;-66
2022/05/09 00:07:19;;;;;;;12.40;3.42;;;15.20;95.90;;;;;;6336376;22;20056;-65
2022/05/09 00:09:46;;;;;;;14.98;3.63;;;15.30;95.90;;;;;;6336305;22;20010;-65
2022/05/09 00:12:13;;;;;;;9.88;3.47;;;15.30;96.00;;;;;;6308695;22;20310;-65
2022/05/09 00:14:40;;;;;;;16.73;3.60;;;15.30;96.20;;;;;;6335884;22;20026;-65
2022/05/09 00:17:07;;;;;;;7.82;2.92;;;15.30;96.20;;;;;;6336449;22;20002;-65
2022/05/09 00:19:35;;;;;;;8.77;2.75;;;15.40;96.20;;;;;;6308000;22;20390;-65
2022/05/09 00:22:02;;;;;;;10.10;3.10;;;15.40;96.30;;;;;;6333155;22;20003;-65
2022/05/09 00:24:29;;;;;;;9.93;3.20;;;15.40;96.30;;;;;;6335645;22;20330;-65
2022/05/09 00:26:57;;;;;;;8.02;3.30;;;15.50;96.40;;;;;;6309930;22;20428;-64
2022/05/09 00:29:24;;;;;;;9.98;2.35;;;15.50;96.50;;;;;;6310247;22;20066;-65
2022/05/09 00:31:55;;;;;;;7.22;2.15;;;15.60;96.60;;;;;;6309910;22;20002;-64
2022/05/09 00:34:22;;;;;;;7.53;2.20;;;15.60;96.60;;;;;;6337558;22;20003;-64
2022/05/09 00:36:50;;;;;;;7.93;2.15;;;15.60;96.50;;;;;;6337054;22;20306;-64
2022/05/09 00:39:17;;;;;;;6.55;2.00;;;15.70;96.60;;;;;;6309959;22;20007;-64
2022/05/09 00:41:44;;;;;;;5.53;1.98;;;15.70;96.60;;;;;;6336753;22;19999;-64
2022/05/09 00:44:15;;;;;;;7.78;2.45;;;15.70;96.60;;;;;;6336646;22;20086;-64
2022/05/09 00:46:44;;;;;;;6.30;1.83;;;15.70;96.70;;;;;;6336830;22;20052;-64
2022/05/09 00:49:31;;;;;;;5.97;1.80;;;15.70;96.80;;;;;;6310457;22;20298;-64
2022/05/09 00:52:03;;;;;;;6.43;2.10;;;15.70;96.80;;;;;;6312305;22;20010;-64
2022/05/09 00:54:46;;;;;;;7.90;2.13;;;15.80;96.70;;;;;;6310513;22;20007;-64
2022/05/09 00:57:30;;;;;;;4.25;1.80;;;15.80;96.70;;;;;;6311056;22;19998;-64
2022/05/09 01:00:00;;;;;;;9.52;2.30;;;15.80;96.70;;;;;;6309402;22;20003;-64
2022/05/09 01:02:28;;;;;;;10.10;2.90;;;15.70;96.60;;;;;;6309870;22;20071;-64
2022/05/09 01:04:57;;;;;;;10.63;2.40;;;15.70;96.60;;;;;;6309526;22;20019;-64
2022/05/09 01:07:25;;;;;;;7.43;2.55;;;15.70;96.30;;;;;;6337096;22;20498;-63
2022/05/09 01:09:52;;;;;;;15.30;2.90;;;15.70;96.40;;;;;;6337189;22;20045;-64
2022/05/09 01:12:25;;;;;;;7.68;2.70;;;15.70;96.50;;;;;;6309874;22;20002;-64
2022/05/09 01:14:54;;;;;;;6.07;2.33;;;15.70;96.40;;;;;;6337462;22;20011;-64
2022/05/09 01:17:22;;;;;;;9.40;2.80;;;15.70;96.40;;;;;;6336996;22;19998;-65
2022/05/09 01:19:52;;;;;;;6.30;2.67;;;15.70;96.50;;;;;;6337131;22;20451;-64
2022/05/09 01:22:26;;;;;;;6.85;2.60;;;15.70;96.50;;;;;;6309962;22;20014;-65
2022/05/09 01:24:55;;;;;;;6.40;1.98;;;15.70;96.60;;;;;;6335853;22;20449;-64
2022/05/09 01:27:22;;;;;;;4.97;2.33;;;15.70;96.60;;;;;;6309083;22;20084;-64
2022/05/09 01:30:03;;;;;;;8.48;2.40;;;15.70;96.70;;;;;;6310174;22;20069;-65
2022/05/09 01:33:01;;;;;;;10.07;2.40;;;15.70;96.70;;;;;;6311730;22;19999;-65
2022/05/09 01:35:57;;;;;;;7.90;2.53;;;15.80;96.80;;;;;;6337157;22;20096;-65
2022/05/09 01:38:33;;;;;;;9.93;2.80;;;15.70;96.80;;;;;;6309362;22;20390;-65
2022/05/09 01:41:00;;;;;;;6.63;2.58;;;15.70;96.80;;;;;;6284488;22;20018;-65
2022/05/09 01:43:39;;;;;;;7.28;2.38;;;15.70;96.80;;;;;;6336951;22;20010;-65
2022/05/09 01:46:09;;;;;;;7.57;2.67;;;15.70;96.90;;;;;;6309899;22;20011;-66
2022/05/09 01:51:21;;;;;;;11.07;2.55;;;15.70;96.80;;;;;;6336994;22;20098;-66
2022/05/09 01:53:52;;;;;;;6.32;2.35;;;15.70;96.70;;;;;;6337446;22;20068;-66
2022/05/09 01:56:45;;;;;;;6.18;2.08;;;15.70;96.90;;;;;;6337218;22;20425;-65
2022/05/09 01:59:13;;;;;;;6.38;2.00;;;15.70;96.70;;;;;;6305597;22;20007;-66
2022/05/09 02:01:49;;;;;;;5.40;2.08;;;15.70;96.70;;;;;;6338776;22;20409;-66
2022/05/09 02:04:16;;;;;;;6.53;1.98;;;15.70;96.70;;;;;;6286423;22;20010;-66
2022/05/09 02:06:44;;;;;;;7.72;2.70;;;15.70;96.70;;;;;;6311392;22;20034;-66
2022/05/09 02:09:11;;;;;;;6.22;2.00;;;15.70;96.70;;;;;;6338992;22;20003;-66
2022/05/09 02:11:38;;;;;;;11.02;2.35;;;15.70;96.70;;;;;;6338864;22;20007;-66
2022/05/09 02:14:06;;;;;;;11.48;2.15;;;15.70;96.70;;;;;;6338822;22;19999;-66
2022/05/09 02:16:33;;;;;;;10.13;2.33;;;15.70;96.80;;;;;;6311196;22;20333;-66
2022/05/09 02:19:00;;;;;;;12.43;2.40;;;15.70;96.90;;;;;;6338735;22;20003;-66
2022/05/09 02:21:27;;;;;;;7.90;2.28;;;15.70;97.00;;;;;;6338826;22;19994;-66
2022/05/09 02:23:54;;;;;;;8.32;2.10;;;15.70;97.10;;;;;;6338604;22;20333;-66
2022/05/09 02:26:21;;;;;;;9.38;2.00;;;15.70;97.00;;;;;;6338570;22;20037;-66
2022/05/09 02:28:49;;;;;;;11.10;2.70;;;15.70;97.10;;;;;;6310980;22;19999;-66
2022/05/09 02:31:16;;;;;;;6.28;2.38;;;15.70;97.10;;;;;;6338822;22;20078;-66
2022/05/09 02:33:43;;;;;;;6.25;2.20;;;15.80;97.10;;;;;;6338954;22;20448;-66
2022/05/09 02:36:10;;;;;;;9.00;2.67;;;15.70;97.10;;;;;;6338582;22;20003;-66
2022/05/09 02:38:38;;;;;;;8.73;2.78;;;15.70;97.20;;;;;;6338461;22;19995;-66
2022/05/09 02:41:06;;;;;;;8.35;2.50;;;15.80;97.30;;;;;;6310928;22;20006;-66
2022/05/09 02:43:36;;;;;;;19.80;3.00;;;15.80;97.40;;;;;;6338211;22;20099;-66
2022/05/09 02:46:06;;;;;;;7.38;2.30;;;15.90;97.50;;;;;;6337998;22;20050;-66
2022/05/09 02:48:35;;;;;;;8.32;2.72;;;15.90;97.50;;;;;;6326822;22;20830;-66
2022/05/09 02:51:03;;;;;;;15.32;2.83;;;15.90;97.50;;;;;;6338196;22;20088;-67
2022/05/09 02:53:30;;;;;;;8.65;2.45;;;16.00;97.50;;;;;;6338254;22;19995;-66
2022/05/09 02:55:58;;;;;;;11.05;2.92;;;15.90;97.40;;;;;;6338379;22;20035;-67
2022/05/09 02:58:25;;;;;;;11.82;3.00;;;15.80;97.40;;;;;;6338736;22;20052;-66
2022/05/09 03:00:52;;;;;;;12.50;3.20;;;15.90;97.50;;;;;;6338385;22;20003;-66
2022/05/09 03:06:04;;;;;;;12.68;2.80;;;15.90;97.40;;;;;;6338510;22;20119;-66
2022/05/09 03:08:32;;;;;;;8.50;2.60;;;15.90;97.50;;;;;;6337740;22;20044;-66
2022/05/09 03:10:59;;;;;;;13.57;3.28;;;15.90;97.50;;;;;;6311029;22;20041;-66
2022/05/09 03:13:26;;;;;;;14.38;3.28;;;15.90;97.40;;;;;;6311037;22;20070;-67
2022/05/09 03:15:53;;;;;;;11.35;2.85;;;15.90;97.50;;;;;;6337845;22;19999;-66
2022/05/09 03:18:25;;;;;;;13.30;3.40;;;15.90;97.60;;;;;;6337853;22;20009;-66
2022/05/09 03:20:52;;;;;;;9.52;2.70;;;16.00;97.70;;;;;;6310494;22;20003;-66
2022/05/09 03:23:19;;;;;;;14.35;3.05;;;16.00;97.60;;;;;;6337606;22;20082;-67
2022/05/09 03:25:46;;;;;;;10.65;3.00;;;16.00;97.70;;;;;;6310697;22;20037;-67
2022/05/09 03:28:19;;;;;;;11.07;2.60;;;16.00;97.80;;;;;;6337606;22;20494;-66
2022/05/09 03:30:47;;;;;;;11.75;2.72;;;16.00;97.60;;;;;;6337827;22;20425;-66
2022/05/09 03:33:14;;;;;;;13.57;3.42;;;15.90;97.60;;;;;;6310808;22;20009;-66
2022/05/09 03:35:42;;;;;;;11.35;3.03;;;16.00;97.70;;;;;;6338207;22;20003;-66
2022/05/09 03:38:10;;;;;;;9.90;2.70;;;16.00;97.80;;;;;;6311418;22;20116;-66
2022/05/09 03:40:37;;;;;;;11.68;2.53;;;16.00;97.70;;;;;;6310515;22;20003;-66
2022/05/09 03:43:05;;;;;;;10.75;3.05;;;16.00;97.70;;;;;;6337635;22;20417;-66
2022/05/09 03:45:33;;;;;;;6.63;2.72;;;16.00;97.70;;;;;;6337300;22;20011;-65
2022/05/09 03:48:00;;;;;;;14.68;2.90;;;16.00;97.80;;;;;;6309829;22;20006;-65
2022/05/09 03:50:28;;;;;;;9.73;3.05;;;16.00;97.80;;;;;;6338312;22;20154;-65
2022/05/09 03:52:55;;;;;;;11.50;2.95;;;16.10;97.80;;;;;;6338133;22;19999;-65
2022/05/09 03:55:22;;;;;;;10.43;2.50;;;16.10;97.80;;;;;;6338224;22;20034;-66
2022/05/09 03:57:56;;;;;;;11.55;2.70;;;16.10;97.80;;;;;;6337882;22;20029;-66
2022/05/09 04:00:25;;;;;;;13.55;2.60;;;16.10;97.90;;;;;;6337747;22;20002;-66
2022/05/09 04:02:52;;;;;;;11.63;2.47;;;16.10;97.70;;;;;;6310343;22;20018;-65
2022/05/09 04:05:20;;;;;;;12.48;2.83;;;16.00;97.60;;;;;;6337454;22;20022;-65
2022/05/09 04:07:53;;;;;;;10.35;2.60;;;16.00;97.70;;;;;;6337407;22;20069;-65
2022/05/09 04:10:26;;;;;;;8.00;2.55;;;16.00;97.70;;;;;;6310559;22;20003;-65
2022/05/09 04:12:53;;;;;;;12.70;2.38;;;16.10;97.80;;;;;;6337657;22;20363;-64
2022/05/09 04:18:06;;;;;;;15.25;2.60;;;16.10;97.80;;;;;;6337855;22;20010;-65
2022/05/09 04:20:33;;;;;;;9.93;2.33;;;16.10;97.90;;;;;;6310008;22;20066;-65
2022/05/09 04:23:01;;;;;;;9.15;2.30;;;16.10;97.80;;;;;;6310406;22;20425;-66
2022/05/09 04:25:31;;;;;;;8.93;2.45;;;16.10;97.80;;;;;;6308378;22;20046;-65
2022/05/09 04:28:00;;;;;;;11.50;2.45;;;16.10;97.80;;;;;;6337381;22;20038;-64
2022/05/09 04:30:27;;;;;;;8.98;2.47;;;16.10;97.90;;;;;;6336978;22;19999;-65
2022/05/09 04:32:54;;;;;;;9.07;2.15;;;16.20;97.90;;;;;;6337408;22;20014;-64
2022/05/09 04:35:21;;;;;;;7.25;2.05;;;16.10;97.80;;;;;;6309084;22;20064;-64
2022/05/09 04:37:49;;;;;;;6.82;2.10;;;16.10;97.80;;;;;;6337348;22;20055;-64
2022/05/09 04:40:28;;;;;;;8.63;2.40;;;16.10;97.70;;;;;;6337313;22;20125;-64
2022/05/09 04:42:56;;;;;;;6.72;1.73;;;16.00;97.70;;;;;;6309588;22;20003;-64
2022/05/09 04:45:23;;;;;;;11.40;2.28;;;16.10;97.60;;;;;;6336619;22;20039;-64
2022/05/09 04:47:51;;;;;;;9.45;1.80;;;16.10;97.70;;;;;;6337162;22;20307;-64
2022/05/09 04:50:20;;;;;;;8.85;2.08;;;16.10;97.70;;;;;;6309952;22;20499;-64
2022/05/09 04:52:47;;;;;;;11.63;2.50;;;16.20;97.70;;;;;;6335233;22;20079;-65
2022/05/09 04:55:15;;;;;;;9.85;2.35;;;16.20;97.70;;;;;;6336787;22;20075;-64
2022/05/09 04:57:43;;;;;;;6.22;1.88;;;16.20;97.70;;;;;;6309044;22;20007;-64
2022/05/09 05:00:15;;;;;;;10.30;2.83;;;16.20;97.70;;;;;;6337359;22;20077;-64
2022/05/09 05:02:42;;;;;;;11.55;2.13;;;16.20;97.60;;;;;;6337400;22;20002;-64
2022/05/09 05:05:10;;;;;;;12.75;3.05;;;16.20;97.60;;;;;;6336180;22;20380;-64
2022/05/09 05:07:37;;;;;;;9.40;2.28;;;16.30;97.60;;;;;;6336752;22;20034;-64
2022/05/09 05:10:05;;;;;;;7.95;2.40;;;16.20;97.40;;;;;;6336617;22;20006;-64
2022/05/09 05:12:32;;;;;;;9.82;2.38;;;16.30;97.40;;;;;;6336821;22;20006;-64
2022/05/09 05:15:00;;;;;;;10.20;2.30;;;16.30;97.30;;;;;;6336934;22;20010;-64
2022/05/09 05:17:27;;;;;;;12.75;2.40;;;16.30;97.20;;;;;;6333337;22;19999;-65
2022/05/09 05:19:55;;;;;;;11.48;2.70;;;16.40;97.20;;;;;;6333003;22;20106;-65
2022/05/09 05:22:22;;;;;;;7.55;2.10;;;16.40;97.20;;;;;;6305923;22;20014;-63
2022/05/09 05:24:52;;;;;;;4.18;2.15;;;16.50;97.20;;;;;;6333271;22;20014;-64
2022/05/09 05:27:21;;;;;;;12.15;2.83;;;16.50;97.20;;;;;;6333047;22;20374;-64
2022/05/09 05:29:56;;;;;;;13.00;2.50;;;16.50;97.20;;;;;;6333001;22;20073;-63
2022/05/09 05:32:25;;;;;;;11.98;2.70;;;16.50;97.20;;;;;;6334895;22;20010;-64
2022/05/09 05:34:52;;;;;;;12.13;2.63;;;16.60;97.00;;;;;;6336000;22;20007;-64
2022/05/09 05:37:20;;;;;;;9.00;2.10;;;16.60;97.10;;;;;;6336101;22;19998;-64
2022/05/09 05:39:47;;;;;;;10.70;2.53;;;16.50;97.00;;;;;;6333512;22;20011;-63
2022/05/09 05:42:17;;;;;;;13.38;2.83;;;16.60;96.90;;;;;;6335910;22;20059;-63
2022/05/09 05:44:48;;;;;;;12.73;3.50;;;16.50;96.50;;;;;;6335396;22;20057;-62
2022/05/09 05:47:15;;;;;;;;;;;16.40;95.70;;;;;;6309319;22;20010;-63
2022/05/09 05:49:42;;;;;;;9.27;2.30;;;16.50;95.80;;;;;;6335846;22;19929;-63
2022/05/09 05:52:11;;;;;;;13.10;3.28;;;16.50;96.20;;;;;;6335756;22;20017;-63
2022/05/09 05:54:40;;;;;;;15.27;3.22;;;16.60;96.20;;;;;;6332646;22;20011;-63
2022/05/09 05:57:18;;;;;;;6.03;2.90;;;16.50;96.20;;;;;;6335858;22;20321;-63
2022/05/09 06:00:04;;;;;;;12.93;2.50;;;16.60;96.30;;;;;;6308904;22;20060;-63
2022/05/09 06:02:32;;;;;;;8.48;2.65;;;16.50;95.90;;;;;;6336221;22;20017;-63
2022/05/09 06:04:59;;;;;;;11.38;2.53;;;16.50;95.90;;;;;;6334950;22;20015;-63
2022/05/09 06:07:26;;;;;;;9.27;2.08;;;16.50;95.90;;;;;;6333658;22;20056;-63
2022/05/09 06:09:53;;;;;;;9.32;2.88;;;16.50;95.90;;;;;;6335237;22;20457;-63
2022/05/09 06:12:22;;;;;;;12.45;2.60;;;16.50;95.90;;;;;;6335473;22;20437;-63
2022/05/09 06:15:24;;;;;;;11.40;2.90;;;16.50;96.10;;;;;;6334971;22;20006;-63
2022/05/09 06:17:37;;;;;;;11.02;2.75;;;16.50;96.10;;;;;;6333521;22;20011;-64
2022/05/09 06:20:09;;;;;;;6.88;2.00;;;16.40;96.30;;;;;;6335596;22;20017;-65
2022/05/09 06:22:38;;;;;;;14.18;2.97;;;16.30;96.40;;;;;;6335355;22;20003;-65
2022/05/09 06:25:07;;;;;;;9.25;3.20;;;16.30;96.60;;;;;;6334378;22;20337;-64
2022/05/09 06:27:34;;;;;;;9.70;2.80;;;16.20;96.70;;;;;;6308688;22;20017;-64
2022/05/09 06:30:05;;;;;;;9.25;2.35;;;16.20;96.80;;;;;;6335019;22;20045;-64
2022/05/09 06:32:32;;;;;;;9.13;2.10;;;16.20;97.00;;;;;;6335487;22;20102;-64
2022/05/09 06:35:05;;;;;;;8.18;2.55;;;16.20;97.10;;;;;;6336002;22;20006;-64
2022/05/09 06:37:33;;;;;;;9.00;2.20;;;16.10;97.10;;;;;;6333301;22;20003;-64
2022/05/09 06:40:01;;;;;;;7.82;3.15;;;16.10;97.10;;;;;;6335156;22;20447;-64
2022/05/09 06:42:28;;;;;;;12.90;3.05;;;16.00;97.20;;;;;;6332426;22;20322;-63
2022/05/09 06:44:56;;;;;;;6.75;2.00;;;16.10;97.30;;;;;;6333091;22;20014;-63
2022/05/09 06:47:23;;;;;;;5.10;2.20;;;16.10;97.40;;;;;;6332926;22;20054;-63
2022/05/09 06:49:50;;;;;;;6.60;2.08;;;16.00;97.40;;;;;;6332304;22;19999;-63
2022/05/09 06:52:17;;;;;;;8.00;2.38;;;16.00;97.50;;;;;;6332588;22;20317;-63
2022/05/09 06:54:44;;;;;;;7.47;2.63;;;16.00;97.50;;;;;;6302873;22;20010;-64
2022/05/09 06:57:11;;;;;;;11.02;2.92;;;16.10;97.60;;;;;;6332685;22;20084;-64
2022/05/09 06:59:39;;;;;;;11.68;3.17;;;16.00;97.60;;;;;;6332975;22;20006;-64
2022/05/09 07:02:06;;;;;;;13.13;3.25;;;16.10;97.70;;;;;;6332622;22;20007;-64
2022/05/09 07:04:33;;;;;;;11.85;2.97;;;16.10;97.70;;;;;;6331863;22;20021;-65
2022/05/09 07:07:00;;;;;;;16.98;3.10;;;16.10;97.70;;;;;;6333085;22;20413;-64
2022/05/09 07:09:27;;;;;;;10.45;2.53;;;16.00;97.70;;;;;;6331911;22;20038;-64
2022/05/09 07:11:54;;;;;;;15.38;3.70;;;16.10;97.70;;;;;;6333159;22;20063;-64
2022/05/09 07:14:22;;;;;;;10.18;3.13;;;16.10;97.80;;;;;;6333700;22;20527;-64
2022/05/09 07:16:49;;;;;;;13.70;3.83;;;16.10;97.80;;;;;;6332958;22;20082;-64
2022/05/09 07:19:16;;;;;;;9.52;3.00;;;16.10;97.80;;;;;;6333632;22;19999;-64
2022/05/09 07:21:44;;;;;;;12.20;2.90;;;16.00;97.80;;;;;;6332675;22;20037;-63
2022/05/09 07:24:11;;;;;;;12.80;2.88;;;16.00;97.80;;;;;;6306205;22;20026;-64
2022/05/09 07:26:39;;;;;;;9.55;2.75;;;16.10;97.90;;;;;;6333683;22;20029;-64
2022/05/09 07:29:06;;;;;;;10.05;2.50;;;16.00;97.90;;;;;;6332500;22;20034;-64
2022/05/09 07:31:34;;;;;;;8.32;2.25;;;16.10;97.90;;;;;;6332021;22;20030;-64
2022/05/09 07:34:01;;;;;;;11.95;3.00;;;16.00;97.90;;;;;;6333524;22;19999;-64
2022/05/09 07:36:28;;;;;;;8.40;2.30;;;16.00;98.00;;;;;;6333184;22;20010;-63
2022/05/09 07:38:55;;;;;;;10.07;2.83;;;16.00;97.90;;;;;;6332858;22;20061;-63
2022/05/09 07:41:23;;;;;;;13.80;2.97;;;16.00;97.90;;;;;;6306300;22;20014;-63
2022/05/09 07:43:50;;;;;;;11.93;2.42;;;16.00;98.00;;;;;;6332489;22;20064;-64
2022/05/09 07:46:17;;;;;;;13.65;2.40;;;16.00;98.00;;;;;;6333686;22;20090;-64
2022/05/09 07:48:44;;;;;;;20.48;2.60;;;15.90;98.00;;;;;;6332862;22;20108;-64
2022/05/09 07:51:14;;;;;;;11.73;2.47;;;16.00;98.10;;;;;;6332687;22;20091;-64
2022/05/09 07:53:41;;;;;;;9.20;2.83;;;15.90;98.10;;;;;;6330500;22;20003;-64
2022/05/09 07:56:08;;;;;;;8.60;2.05;;;15.90;98.10;;;;;;6332796;22;20009;-64
2022/05/09 07:58:35;;;;;;;9.80;1.92;;;16.00;98.10;;;;;;6332908;22;20310;-64
2022/05/09 08:01:03;;;;;;;8.60;2.10;;;15.90;98.10;;;;;;6333618;22;20569;-64
2022/05/09 08:03:32;;;;;;;16.08;2.30;;;15.80;98.10;;;;;;6332519;22;20091;-63
2022/05/09 08:06:02;;;;;;;10.35;2.83;;;15.90;98.10;;;;;;6330390;22;20057;-65
2022/05/09 08:08:30;;;;;;;8.35;2.42;;;15.90;98.20;;;;;;6332995;22;20013;-63
2022/05/09 08:10:58;;;;;;;15.50;2.45;;;15.90;98.10;;;;;;6331952;22;20354;-63
2022/05/09 08:13:26;;;;;;;9.15;2.35;;;15.90;98.20;;;;;;6332187;22;20084;-64
2022/05/09 08:15:53;;;;;;;10.73;2.40;;;15.90;98.20;;;;;;6332885;22;20002;-64
2022/05/09 08:18:21;;;;;;;10.93;2.30;;;15.90;98.20;;;;;;6332373;22;20011;-64
2022/05/09 08:20:49;;;;;;;11.63;2.15;;;15.80;98.20;;;;;;6332548;22;20003;-63
2022/05/09 08:23:18;;;;;;;9.95;2.33;;;15.90;98.20;;;;;;6305915;22;20696;-62
2022/05/09 08:25:49;;;;;;;7.50;2.30;;;15.90;98.20;;;;;;6332532;22;20026;-64
2022/05/09 08:28:17;;;;;;;16.38;2.50;;;15.90;98.20;;;;;;6302754;22;20006;-63
2022/05/09 08:30:44;;;;;;;11.35;2.58;;;15.80;98.20;;;;;;6331328;22;20003;-63
2022/05/09 08:33:17;;;;;;;6.72;1.88;;;15.90;98.20;;;;;;6303128;22;20026;-63
2022/05/09 08:35:44;;;;;;;12.32;2.70;;;15.80;98.20;;;;;;6305080;22;20320;-62
2022/05/09 08:38:12;;;;;;;18.90;2.70;;;15.80;98.20;;;;;;6331900;22;19998;-63
2022/05/09 08:40:53;;;;;;;8.88;2.40;;;15.80;98.20;;;;;;6329372;22;20011;-62
2022/05/09 08:44:08;;;;;;;11.57;2.92;;;15.80;98.20;;;;;;6332786;22;20002;-62
2022/05/09 08:46:46;;;;;;;9.55;2.90;;;15.80;98.30;;;;;;6193602;22;20104;-63
2022/05/09 08:49:21;;;;;;;9.05;3.42;;;15.80;98.30;;;;;;6304972;22;20086;-62
2022/05/09 08:52:06;;;;;;;13.77;3.75;;;15.80;98.20;;;;;;6330233;22;20345;-63
2022/05/09 08:54:34;;;;;;;11.57;4.28;;;15.80;98.30;;;;;;6301028;22;20516;-62
2022/05/09 08:57:08;;;;;;;10.13;3.80;;;15.80;98.30;;;;;;6279712;22;20710;-63
2022/05/09 08:59:46;;;;;;;9.93;3.20;;;15.80;98.30;;;;;;6279878;22;20042;-63
2022/05/09 09:02:16;;;;;;;5.55;2.50;;;15.80;98.30;;;;;;6306160;22;20002;-62
2022/05/09 09:04:46;;;;;;;10.57;2.30;;;15.80;98.30;;;;;;6278473;22;20030;-63
2022/05/09 09:07:47;;;;;;;13.35;2.60;;;15.80;98.30;;;;;;6252617;22;19999;-63
2022/05/09 09:10:32;;;;;;;8.95;2.50;;;15.80;98.30;;;;;;6280589;22;20033;-63
2022/05/09 09:13:22;;;;;;;14.93;2.80;;;15.70;98.30;;;;;;6331472;22;20014;-64
2022/05/09 09:16:04;;;;;;;9.93;2.95;;;15.70;98.30;;;;;;6331583;22;20070;-64
2022/05/09 09:18:47;;;;;;;9.85;2.97;;;15.70;98.30;;;;;;6331215;22;20024;-64
2022/05/09 09:21:41;;;;;;;10.93;3.28;;;15.70;98.30;;;;;;6303612;22;20016;-64
2022/05/09 09:24:17;;;;;;;12.23;2.88;;;15.70;98.30;;;;;;6305893;22;20078;-64
2022/05/09 09:27:00;;;;;;;12.38;2.83;;;15.70;98.30;;;;;;6331085;22;20018;-64
2022/05/09 09:29:30;;;;;;;11.10;3.08;;;15.70;98.30;;;;;;6303992;22;19999;-63
2022/05/09 09:32:05;;;;;;;7.90;2.80;;;15.70;98.30;;;;;;6332615;22;20011;-64
2022/05/09 09:34:42;;;;;;;10.57;3.00;;;15.70;98.40;;;;;;6279896;22;20003;-63
2022/05/09 09:37:19;;;;;;;10.15;3.00;;;15.70;98.30;;;;;;6330682;22;20037;-63
2022/05/09 09:39:46;;;;;;;7.88;2.78;;;15.70;98.40;;;;;;6305398;22;20002;-63
2022/05/09 09:42:13;;;;;;;12.52;2.85;;;15.70;98.40;;;;;;6331300;22;20436;-64
2022/05/09 09:44:46;;;;;;;10.85;2.80;;;15.70;98.40;;;;;;6332371;22;20046;-63
2022/05/09 09:47:19;;;;;;;10.23;2.95;;;15.70;98.40;;;;;;6280672;22;20117;-63
2022/05/09 09:49:48;;;;;;;13.50;2.85;;;15.70;98.30;;;;;;6331854;22;20074;-64
2022/05/09 09:52:22;;;;;;;8.45;2.60;;;15.60;98.30;;;;;;6331446;22;20013;-63
2022/05/09 09:54:57;;;;;;;12.38;3.15;;;15.60;98.30;;;;;;6301814;22;20014;-64
2022/05/09 09:57:29;;;;;;;8.90;2.47;;;15.60;98.30;;;;;;6331274;22;20009;-63
2022/05/09 09:59:58;;;;;;;13.52;3.38;;;15.50;98.20;;;;;;6331757;22;20306;-63
2022/05/09 10:02:30;;;;;;;7.38;2.72;;;15.50;98.20;;;;;;6304122;22;20006;-64
2022/05/09 10:04:58;;;;;;;13.50;2.97;;;15.50;98.20;;;;;;6303504;22;20093;-63
2022/05/09 10:07:29;;;;;;;9.55;2.67;;;15.60;98.30;;;;;;6330344;22;20600;-63
2022/05/09 10:10:07;;;;;;;7.53;2.47;;;15.50;98.20;;;;;;6332280;22;20019;-64
2022/05/09 10:12:34;;;;;;;8.07;2.33;;;15.50;98.20;;;;;;6302842;22;20078;-63
2022/05/09 10:15:03;;;;;;;11.38;2.92;;;15.50;98.20;;;;;;6305135;22;20003;-63
2022/05/09 10:17:34;;;;;;;12.23;2.92;;;15.50;98.20;;;;;;6332740;22;20455;-63
2022/05/09 10:20:22;;;;;;;7.35;2.60;;;15.50;98.30;;;;;;6333535;22;20006;-63
2022/05/09 10:25:37;;;;;;;10.85;2.47;;;15.60;98.30;;;;;;6288985;22;20088;-66
2022/05/09 10:28:19;;;;;;;11.05;2.80;;;15.50;98.30;;;;;;6333183;22;20014;-63
2022/05/09 10:30:51;;;;;;;11.35;2.33;;;15.50;98.30;;;;;;6305205;22;20003;-63
2022/05/09 10:33:21;;;;;;;9.30;2.55;;;15.50;98.30;;;;;;6306823;22;20490;-63
2022/05/09 10:35:54;;;;;;;11.65;2.28;;;15.50;98.30;;;;;;6333365;22;20033;-63
2022/05/09 10:38:29;;;;;;;9.98;2.30;;;15.50;98.30;;;;;;6281218;22;20011;-63
2022/05/09 10:41:05;;;;;;;9.55;2.05;;;15.50;98.20;;;;;;6281079;22;20007;-63
2022/05/09 10:43:43;;;;;;;18.70;2.50;;;15.50;98.30;;;;;;6282086;22;19994;-63
2022/05/09 10:46:13;;;;;;;3.72;1.77;;;15.50;98.30;;;;;;6305812;22;20055;-64
2022/05/09 10:48:59;;;;;;;9.52;2.33;;;15.60;98.30;;;;;;6333984;22;20090;-63
2022/05/09 10:51:54;;;;;;;5.32;2.15;;;15.50;98.20;;;;;;6283063;22;20115;-63
2022/05/09 10:54:39;;;;;;;6.78;2.20;;;15.50;98.20;;;;;;6331116;22;20082;-63
2022/05/09 10:57:22;;;;;;;7.57;2.10;;;15.50;98.20;;;;;;6282410;22;20011;-63
2022/05/09 10:59:49;;;;;;;8.02;2.20;;;15.50;98.20;;;;;;6309565;22;20062;-63
2022/05/09 11:02:31;;;;;;;13.10;2.00;;;15.50;98.20;;;;;;6255083;22;20006;-63
2022/05/09 11:04:58;;;;;;;11.38;2.63;;;15.40;98.20;;;;;;6306780;22;20015;-63
2022/05/09 11:08:05;;;;;;;13.70;2.33;;;15.40;98.20;;;;;;6334183;22;19999;-63
2022/05/09 11:10:51;;;;;;;9.48;2.33;;;15.40;98.20;;;;;;6285401;22;20006;-62
2022/05/09 11:13:30;;;;;;;15.65;2.60;;;15.50;98.30;;;;;;6281544;22;20370;-63
2022/05/09 11:16:15;;;;;;;7.38;2.05;;;15.40;98.30;;;;;;6332678;22;20011;-63
2022/05/09 11:18:48;;;;;;;10.45;2.00;;;15.40;98.30;;;;;;6282519;22;20096;-62
2022/05/09 11:21:40;;;;;;;10.40;2.35;;;15.40;98.20;;;;;;6333071;22;20007;-63
2022/05/09 11:24:36;;;;;;;10.77;2.65;;;15.40;98.30;;;;;;6305389;22;20054;-63
2022/05/09 11:27:24;;;;;;;12.80;2.65;;;15.50;98.30;;;;;;6306587;22;20021;-63
2022/05/09 11:30:30;;;;;;;7.00;2.25;;;15.40;98.30;;;;;;6332987;22;19999;-63
2022/05/09 11:33:07;;;;;;;15.27;2.55;;;15.40;98.30;;;;;;6305700;22;20064;-63
2022/05/09 11:35:36;;;;;;;8.70;2.25;;;15.40;98.30;;;;;;6306407;22;20003;-63
2022/05/09 11:38:24;;;;;;;10.00;2.53;;;15.40;98.30;;;;;;6306216;22;20484;-63
2022/05/09 11:40:57;;;;;;;8.85;2.42;;;15.40;98.30;;;;;;6333283;22;20077;-63
2022/05/09 11:43:35;;;;;;;10.50;2.47;;;15.40;98.30;;;;;;6333181;22;20014;-63
2022/05/09 11:46:23;;;;;;;10.75;2.38;;;15.40;98.30;;;;;;6333185;22;20046;-63
2022/05/09 11:49:06;;;;;;;7.60;2.30;;;15.40;98.30;;;;;;6305226;22;20038;-63
2022/05/09 11:51:42;;;;;;;9.20;2.25;;;15.40;98.30;;;;;;6332758;22;20452;-63
2022/05/09 11:54:12;;;;;;;10.38;2.50;;;15.40;98.30;;;;;;6330472;22;20002;-63
2022/05/09 11:56:39;;;;;;;11.43;2.42;;;15.30;98.30;;;;;;6305493;22;20002;-63
2022/05/09 11:59:06;;;;;;;17.08;2.75;;;15.40;98.30;;;;;;6306310;22;20333;-63
2022/05/09 12:02:12;;;;;;;10.95;2.65;;;15.40;98.30;;;;;;6306658;22;20436;-65
2022/05/09 12:04:49;;;;;;;14.43;2.05;;;15.40;98.30;;;;;;6211251;23;20012;-63
2022/05/09 12:07:24;;;;;;;14.02;2.35;;;15.40;98.30;;;;;;6212435;23;20020;-63
2022/05/09 12:10:03;;;;;;;7.57;2.55;;;15.40;98.30;;;;;;6296528;22;20013;-63
2022/05/09 12:12:43;;;;;;;11.77;2.75;;;15.40;98.30;;;;;;6333086;22;20006;-63
2022/05/09 12:15:17;;;;;;;8.88;2.85;;;15.40;98.30;;;;;;6332919;22;20015;-63
2022/05/09 12:17:50;;;;;;;9.50;2.65;;;15.40;98.40;;;;;;6332934;22;20455;-62
2022/05/09 12:20:29;;;;;;;16.10;3.33;;;15.40;98.40;;;;;;6308461;22;20074;-63
2022/05/09 12:23:01;;;;;;;17.83;3.20;;;15.40;98.40;;;;;;6336661;22;20002;-63
2022/05/09 12:25:35;;;;;;;11.70;3.40;;;15.40;98.40;;;;;;6336421;22;20360;-63
2022/05/09 12:28:04;;;;;;;13.25;3.35;;;15.40;98.30;;;;;;6309436;22;20006;-63
2022/05/09 12:30:52;;;;;;;14.25;3.50;;;15.40;98.30;;;;;;6283352;22;20341;-63
2022/05/09 12:33:29;;;;;;;18.60;6.35;;;15.40;98.40;;;;;;6336374;22;20002;-63
2022/05/09 12:35:59;;;;;;;8.60;2.90;;;15.40;98.40;;;;;;6309602;22;20013;-63
2022/05/09 12:38:33;;;;;;;10.02;2.90;;;15.40;98.40;;;;;;6309027;22;20003;-63
2022/05/09 12:41:02;;;;;;;14.63;2.85;;;15.40;98.40;;;;;;6308621;22;20007;-62
2022/05/09 12:43:30;;;;;;;10.52;2.85;;;15.40;98.40;;;;;;6309206;22;20056;-63
2022/05/09 12:45:57;;;;;;;13.25;2.95;;;15.40;98.40;;;;;;6335829;22;20463;-63
2022/05/09 12:48:24;;;;;;;9.52;2.75;;;15.40;98.40;;;;;;6309743;22;19999;-63
2022/05/09 12:50:51;;;;;;;10.82;3.08;;;15.40;98.40;;;;;;6308486;22;20030;-63
2022/05/09 12:53:19;;;;;;;9.93;2.90;;;15.40;98.40;;;;;;6336111;22;20423;-62
2022/05/09 12:55:56;;;;;;;10.27;3.03;;;15.40;98.40;;;;;;6309712;22;20421;-63
2022/05/09 12:58:32;;;;;;;11.18;3.20;;;15.40;98.40;;;;;;6287789;22;20010;-63
2022/05/09 13:01:13;;;;;;;13.60;3.50;;;15.40;98.30;;;;;;6336956;22;20023;-63
2022/05/09 13:03:51;;;;;;;14.90;3.10;;;15.30;98.40;;;;;;6337504;22;20006;-63
2022/05/09 13:06:29;;;;;;;9.20;3.13;;;15.30;98.30;;;;;;6336502;22;20015;-63
2022/05/09 13:08:57;;;;;;;9.15;3.05;;;15.30;98.30;;;;;;6336511;22;19998;-63
2022/05/09 13:11:28;;;;;;;13.02;3.90;;;15.30;98.30;;;;;;6336779;22;20006;-63
2022/05/09 13:14:13;;;;;;;13.73;3.50;;;15.30;98.30;;;;;;6308423;22;20026;-64
2022/05/09 13:16:42;;;;;;;11.13;3.70;;;15.30;98.30;;;;;;6309446;22;20002;-63
2022/05/09 13:19:16;;;;;;;8.43;3.85;;;15.30;98.30;;;;;;6284765;22;20048;-63